createdAt,value
2022-12-13T00:00:21.741Z,100099.45
2022-12-13T00:04:09.552Z,100096.66
2022-12-13T00:07:36.558Z,100098.30
2022-12-13T00:11:04.241Z,100095.67
2022-12-13T00:14:32.747Z,100095.41
2022-12-13T00:17:59.816Z,100094.79
2022-12-13T00:21:29.298Z,100097.63
2022-12-13T00:24:56.604Z,100102.73
2022-12-13T00:28:23.895Z,100107.89
2022-12-13T00:31:59.448Z,100106.55
2022-12-13T00:35:27.348Z,100103.48
2022-12-13T00:39:01.707Z,100104.81
2022-12-13T00:42:28.456Z,100110.19
2022-12-13T00:45:56.100Z,100110.48
2022-12-13T00:49:22.937Z,100103.59
2022-12-13T00:52:49.594Z,100108.77
2022-12-13T00:56:19.636Z,100112.70
2022-12-13T00:59:46.362Z,100116.14
2022-12-13T01:03:21.507Z,100113.05
2022-12-13T01:06:51.636Z,100112.30
2022-12-13T01:10:18.653Z,100117.67
2022-12-13T01:13:45.462Z,100116.35
2022-12-13T01:17:12.610Z,100114.41
2022-12-13T01:20:39.604Z,100114.15
2022-12-13T01:24:08.248Z,100112.67
2022-12-13T01:27:35.099Z,100113.30
2022-12-13T01:31:03.575Z,100117.23
2022-12-13T01:34:30.472Z,100118.37
2022-12-13T01:37:58.265Z,100117.05
2022-12-13T01:41:27.206Z,100119.83
2022-12-13T01:45:06.296Z,100119.54
2022-12-13T01:48:39.401Z,100124.88
2022-12-13T01:52:10.446Z,100123.67
2022-12-13T01:55:41.273Z,100120.79
2022-12-13T01:59:11.799Z,100128.89
2022-12-13T02:02:40.944Z,100120.45
2022-12-13T02:06:12.916Z,100128.38
2022-12-13T02:09:40.071Z,100122.61
2022-12-13T02:13:06.903Z,100120.91
2022-12-13T02:16:48.056Z,100119.59
2022-12-13T02:20:40.004Z,100120.04
2022-12-13T02:24:41.969Z,100115.91
2022-12-13T02:28:31.325Z,100113.91
2022-12-13T02:32:06.322Z,100112.27
2022-12-13T02:35:41.787Z,100113.61
2022-12-13T02:39:15.374Z,100109.13
2022-12-13T02:42:49.090Z,100105.13
2022-12-13T02:46:18.593Z,100099.62
2022-12-13T02:49:47.041Z,100095.55
2022-12-13T02:53:16.877Z,100097.21
2022-12-13T02:56:43.566Z,100094.77
2022-12-13T03:00:14.517Z,100092.42
2022-12-13T03:03:48.727Z,100092.18
2022-12-13T03:07:20.887Z,100097.20
2022-12-13T03:10:54.468Z,100092.67
2022-12-13T03:14:23.726Z,100092.34
2022-12-13T03:17:55.667Z,100091.76
2022-12-13T03:21:22.411Z,100095.52
2022-12-13T03:24:49.822Z,100092.68
2022-12-13T03:28:16.726Z,100090.14
2022-12-13T03:31:43.678Z,100090.89
2022-12-13T03:35:22.075Z,100096.88
2022-12-13T03:38:52.238Z,100098.59
2022-12-13T03:42:19.346Z,100096.00
2022-12-13T03:45:46.783Z,100095.33
2022-12-13T03:49:17.121Z,100095.71
2022-12-13T03:52:44.963Z,100092.73
2022-12-13T03:56:12.632Z,100094.57
2022-12-13T03:59:39.386Z,100090.42
2022-12-13T04:03:06.595Z,100091.75
2022-12-13T04:06:33.607Z,100087.70
2022-12-13T04:10:00.350Z,100083.52
2022-12-13T04:13:35.997Z,100078.80
2022-12-13T04:17:02.660Z,100081.23
2022-12-13T04:20:29.529Z,100080.20
2022-12-13T04:23:56.107Z,100074.71
2022-12-13T04:27:27.798Z,100076.37
2022-12-13T04:30:54.814Z,100079.62
2022-12-13T04:34:21.901Z,100082.53
2022-12-13T04:37:48.569Z,100088.05
2022-12-13T04:41:20.406Z,100083.27
2022-12-13T04:44:47.000Z,100087.77
2022-12-13T04:48:13.943Z,100088.23
2022-12-13T04:52:01.247Z,100086.25
2022-12-13T04:55:29.053Z,100086.13
2022-12-13T04:58:57.393Z,100085.55
2022-12-13T05:02:24.472Z,100084.94
2022-12-13T05:06:31.238Z,100086.59
2022-12-13T05:09:57.903Z,100084.46
2022-12-13T05:13:24.448Z,100088.83
2022-12-13T05:16:51.153Z,100090.41
2022-12-13T05:20:18.219Z,100088.33
2022-12-13T05:23:44.862Z,100088.66
2022-12-13T05:27:25.612Z,100091.02
2022-12-13T05:30:53.924Z,100089.14
2022-12-13T05:34:21.250Z,100088.48
2022-12-13T05:37:48.069Z,100094.33
2022-12-13T05:41:24.691Z,100092.96
2022-12-13T05:44:49.816Z,100098.31
2022-12-13T05:48:24.521Z,100097.15
2022-12-13T05:51:51.736Z,100098.36
2022-12-13T05:55:19.112Z,100100.79
2022-12-13T05:58:45.880Z,100099.48
2022-12-13T06:02:15.599Z,100100.05
2022-12-13T06:05:46.787Z,100102.02
2022-12-13T06:09:13.585Z,100105.16
2022-12-13T06:12:43.131Z,100103.62
2022-12-13T06:16:22.907Z,100103.71
2022-12-13T06:19:51.060Z,100105.56
2022-12-13T06:23:17.797Z,100103.16
2022-12-13T06:26:44.990Z,100102.42
2022-12-13T06:30:14.544Z,100106.21
2022-12-13T06:33:41.117Z,100110.45
2022-12-13T06:37:09.558Z,100111.35
2022-12-13T06:40:36.508Z,100111.09
2022-12-13T06:44:03.141Z,100114.33
2022-12-13T06:47:31.447Z,100115.00
2022-12-13T06:51:03.150Z,100118.43
2022-12-13T06:54:29.962Z,100115.67
2022-12-13T06:57:57.855Z,100117.05
2022-12-13T07:01:25.112Z,100120.17
2022-12-13T07:04:51.951Z,100130.10
2022-12-13T07:08:22.161Z,100131.95
2022-12-13T07:11:52.322Z,100134.68
2022-12-13T07:15:19.756Z,100136.19
2022-12-13T07:18:46.911Z,100139.62
2022-12-13T07:22:13.517Z,100140.54
2022-12-13T07:25:40.129Z,100142.77
2022-12-13T07:29:07.331Z,100148.08
2022-12-13T07:32:33.913Z,100152.84
2022-12-13T07:36:07.102Z,100156.08
2022-12-13T07:39:33.742Z,100161.21
2022-12-13T07:43:00.299Z,100159.94
2022-12-13T07:46:32.744Z,100162.41
2022-12-13T07:50:01.672Z,100161.29
2022-12-13T07:53:29.462Z,100163.27
2022-12-13T07:57:04.359Z,100163.09
2022-12-13T08:00:33.325Z,100163.65
2022-12-13T08:03:59.998Z,100165.16
2022-12-13T08:07:30.827Z,100160.48
2022-12-13T08:11:01.627Z,100166.57
2022-12-13T08:14:28.560Z,100165.05
2022-12-13T08:17:57.814Z,100163.77
2022-12-13T08:21:52.564Z,100168.43
2022-12-13T08:25:12.150Z,100172.52
2022-12-13T08:28:39.112Z,100170.52
2022-12-13T08:32:07.933Z,100170.71
2022-12-13T08:35:35.767Z,100176.33
2022-12-13T08:39:04.614Z,100177.74
2022-12-13T08:42:31.180Z,100185.38
2022-12-13T08:46:01.322Z,100190.41
2022-12-13T08:49:28.146Z,100186.98
2022-12-13T08:52:55.037Z,100192.69
2022-12-13T08:56:21.989Z,100192.65
2022-12-13T08:59:48.598Z,100195.75
2022-12-13T09:03:16.070Z,100195.69
2022-12-13T09:06:44.406Z,100199.08
2022-12-13T09:10:25.491Z,100198.48
2022-12-13T09:13:54.752Z,100197.20
2022-12-13T09:17:28.443Z,100196.38
2022-12-13T09:21:11.534Z,100197.20
2022-12-13T09:24:39.006Z,100193.68
2022-12-13T09:28:06.756Z,100195.66
2022-12-13T09:31:36.066Z,100202.91
2022-12-13T09:35:02.771Z,100198.71
2022-12-13T09:38:29.325Z,100197.78
2022-12-13T09:42:01.202Z,100195.52
2022-12-13T09:45:31.876Z,100199.66
2022-12-13T09:49:03.062Z,100197.14
2022-12-13T09:52:41.071Z,100200.73
2022-12-13T09:56:12.995Z,100200.77
2022-12-13T09:59:40.005Z,100195.02
2022-12-13T10:03:14.105Z,100198.50
2022-12-13T10:06:41.028Z,100197.46
2022-12-13T10:10:10.635Z,100203.00
2022-12-13T10:13:44.519Z,100200.00
2022-12-13T10:17:21.425Z,100207.32
2022-12-13T10:20:50.989Z,100207.34
2022-12-13T10:24:31.541Z,100208.94
2022-12-13T10:28:07.772Z,100205.94
2022-12-13T10:31:43.466Z,100206.77
2022-12-13T10:35:24.923Z,100204.03
2022-12-13T10:38:51.569Z,100207.09
2022-12-13T10:42:23.608Z,100200.14
2022-12-13T10:46:01.124Z,100200.79
2022-12-13T10:49:33.343Z,100203.73
2022-12-13T10:53:01.809Z,100201.30
2022-12-13T10:56:37.638Z,100201.55
2022-12-13T11:00:17.983Z,100201.79
2022-12-13T11:03:44.520Z,100199.48
2022-12-13T11:07:26.772Z,100198.38
2022-12-13T11:11:01.472Z,100195.61
2022-12-13T11:14:32.782Z,100195.90
2022-12-13T11:18:02.465Z,100194.09
2022-12-13T11:21:32.799Z,100197.44
2022-12-13T11:25:04.275Z,100194.46
2022-12-13T11:28:59.138Z,100196.13
2022-12-13T11:32:40.846Z,100194.52
2022-12-13T11:36:18.744Z,100197.10
2022-12-13T11:39:51.017Z,100197.23
2022-12-13T11:43:26.418Z,100195.94
2022-12-13T11:46:56.335Z,100200.41
2022-12-13T11:50:34.115Z,100203.64
2022-12-13T11:54:06.597Z,100203.46
2022-12-13T11:57:44.730Z,100209.38
2022-12-13T12:01:16.109Z,100211.64
2022-12-13T12:04:53.614Z,100213.84
2022-12-13T12:08:43.710Z,100215.70
2022-12-13T12:12:22.183Z,100214.83
2022-12-13T12:16:00.442Z,100218.89
2022-12-13T12:19:31.697Z,100218.16
2022-12-13T12:23:08.379Z,100212.44
2022-12-13T12:26:49.805Z,100215.63
2022-12-13T12:30:22.677Z,100219.27
2022-12-13T12:34:00.642Z,100219.12
2022-12-13T12:37:40.678Z,100222.69
2022-12-13T12:41:21.082Z,100223.30
2022-12-13T12:45:03.883Z,100221.45
2022-12-13T12:49:01.788Z,100221.35
2022-12-13T12:52:42.826Z,100221.34
2022-12-13T12:56:22.524Z,100227.44
2022-12-13T13:00:03.441Z,100230.73
2022-12-13T13:03:35.796Z,100235.39
2022-12-13T13:07:23.032Z,100236.31
2022-12-13T13:10:53.298Z,100240.80
2022-12-13T13:14:34.353Z,100239.16
2022-12-13T13:18:01.768Z,100243.73
2022-12-13T13:21:49.404Z,100243.04
2022-12-13T13:25:30.354Z,100244.05
2022-12-13T13:29:17.016Z,100248.21
2022-12-13T13:32:56.925Z,100248.66
2022-12-13T13:36:47.956Z,100248.58
2022-12-13T13:40:31.305Z,100250.20
2022-12-13T13:44:01.737Z,100253.25
2022-12-13T13:47:40.091Z,100259.02
2022-12-13T13:51:29.165Z,100263.58
2022-12-13T13:55:24.646Z,100271.77
2022-12-13T13:59:24.829Z,100272.93
2022-12-13T14:03:33.772Z,100275.16
2022-12-13T14:07:33.714Z,100281.19
2022-12-13T14:11:25.875Z,100282.92
2022-12-13T14:15:26.672Z,100284.66
2022-12-13T14:19:23.048Z,100286.14
2022-12-13T14:22:57.733Z,100284.38
2022-12-13T14:26:56.899Z,100281.21
2022-12-13T14:30:27.832Z,100286.63
2022-12-13T14:33:58.086Z,100289.73
2022-12-13T14:37:30.622Z,100292.69
2022-12-13T14:40:59.946Z,100297.92
2022-12-13T14:44:27.905Z,100294.46
2022-12-13T14:47:57.477Z,100297.70
2022-12-13T14:51:34.623Z,100301.03
2022-12-13T14:55:04.557Z,100304.28
2022-12-13T14:58:31.313Z,100301.75
2022-12-13T15:02:02.547Z,100297.46
2022-12-13T15:05:34.250Z,100301.02
2022-12-13T15:09:01.795Z,100302.61
2022-12-13T15:12:29.951Z,100313.27
2022-12-13T15:16:00.228Z,100312.69
2022-12-13T15:19:30.171Z,100315.39
2022-12-13T15:23:16.092Z,100313.21
2022-12-13T15:26:45.232Z,100313.98
2022-12-13T15:30:17.349Z,100320.36
2022-12-13T15:33:48.673Z,100319.42
2022-12-13T15:37:29.188Z,100321.21
2022-12-13T15:40:56.963Z,100322.15
2022-12-13T15:44:28.143Z,100324.94
2022-12-13T15:47:55.734Z,100325.50
2022-12-13T15:51:28.663Z,100325.15
2022-12-13T15:55:01.794Z,100322.48
2022-12-13T15:58:32.735Z,100324.59
2022-12-13T16:02:00.656Z,100328.36
2022-12-13T16:05:31.494Z,100327.66
2022-12-13T16:09:01.817Z,100323.02
2022-12-13T16:12:34.483Z,100326.54
2022-12-13T16:16:08.875Z,100323.31
2022-12-13T16:19:36.482Z,100326.53
2022-12-13T16:23:08.835Z,100328.11
2022-12-13T16:26:37.110Z,100324.25
2022-12-13T16:30:11.305Z,100325.18
2022-12-13T16:33:37.975Z,100326.09
2022-12-13T16:37:25.207Z,100332.55
2022-12-13T16:40:55.097Z,100336.55
2022-12-13T16:44:30.017Z,100330.92
2022-12-13T16:47:56.669Z,100335.41
2022-12-13T16:51:23.831Z,100335.16
2022-12-13T16:54:52.877Z,100334.30
2022-12-13T16:58:22.448Z,100333.48
2022-12-13T17:01:47.921Z,100337.95
2022-12-13T17:05:15.166Z,100335.80
2022-12-13T17:08:41.730Z,100335.89
2022-12-13T17:12:09.642Z,100332.62
2022-12-13T17:15:36.834Z,100335.70
2022-12-13T17:19:03.551Z,100330.15
2022-12-13T17:22:30.447Z,100330.33
2022-12-13T17:25:58.008Z,100329.23
2022-12-13T17:29:26.238Z,100329.71
2022-12-13T17:32:52.905Z,100331.45
2022-12-13T17:36:19.682Z,100332.86
2022-12-13T17:39:46.740Z,100333.55
2022-12-13T17:43:22.986Z,100335.86
2022-12-13T17:46:56.057Z,100335.71
2022-12-13T17:50:23.655Z,100341.23
2022-12-13T17:53:50.284Z,100341.72
2022-12-13T17:57:17.190Z,100341.62
2022-12-13T18:00:43.896Z,100345.41
2022-12-13T18:04:12.602Z,100345.10
2022-12-13T18:07:39.252Z,100347.20
2022-12-13T18:14:54.349Z,100352.41
2022-12-13T18:18:21.368Z,100350.14
2022-12-13T18:21:48.312Z,100347.73
2022-12-13T18:25:15.018Z,100352.58
2022-12-13T18:28:42.513Z,100359.66
2022-12-13T18:32:09.284Z,100366.91
2022-12-13T18:35:35.954Z,100367.73
2022-12-13T18:39:03.096Z,100368.73
2022-12-13T18:42:31.389Z,100369.01
2022-12-13T18:45:57.943Z,100368.20
2022-12-13T18:49:25.043Z,100373.19
2022-12-13T18:52:51.618Z,100380.44
2022-12-13T18:56:19.598Z,100382.86
2022-12-13T18:59:54.323Z,100381.24
2022-12-13T19:03:22.230Z,100379.70
2022-12-13T19:06:49.022Z,100382.63
2022-12-13T19:10:15.706Z,100379.61
2022-12-13T19:13:42.420Z,100384.36
2022-12-13T19:17:09.014Z,100387.66
2022-12-13T19:20:35.659Z,100384.52
2022-12-13T19:24:02.510Z,100385.93
2022-12-13T19:27:29.111Z,100387.98
2022-12-13T19:30:56.085Z,100380.23
2022-12-13T19:34:23.555Z,100378.23
2022-12-13T19:37:50.289Z,100378.55
2022-12-13T19:41:19.427Z,100381.05
2022-12-13T19:44:45.988Z,100378.84
2022-12-13T19:48:12.887Z,100379.02
2022-12-13T19:51:40.202Z,100381.67
2022-12-13T19:55:07.919Z,100383.31
2022-12-13T19:58:34.970Z,100375.89
2022-12-13T20:02:02.095Z,100378.01
2022-12-13T20:05:29.460Z,100385.52
2022-12-13T20:08:56.178Z,100385.21
2022-12-13T20:12:23.427Z,100383.27
2022-12-13T20:15:50.821Z,100381.61
2022-12-13T20:19:18.298Z,100385.59
2022-12-13T20:22:45.140Z,100384.51
2022-12-13T20:26:18.080Z,100387.55
2022-12-13T20:29:43.263Z,100386.11
2022-12-13T20:33:15.018Z,100387.59
2022-12-13T20:36:42.165Z,100386.20
2022-12-13T20:40:11.378Z,100388.28
2022-12-13T20:43:38.430Z,100386.39
2022-12-13T20:47:05.446Z,100385.65
2022-12-13T20:50:32.252Z,100382.55
2022-12-13T20:53:59.422Z,100384.55
2022-12-13T20:57:26.039Z,100388.87
2022-12-13T21:00:53.224Z,100386.36
2022-12-13T21:04:20.004Z,100386.89
2022-12-13T21:08:04.463Z,100389.08
2022-12-13T21:11:33.442Z,100388.82
2022-12-13T21:15:00.155Z,100383.36
2022-12-13T21:18:26.822Z,100390.11
2022-12-13T21:21:54.757Z,100389.48
2022-12-13T21:25:21.487Z,100388.80
2022-12-13T21:28:48.100Z,100390.95
2022-12-13T21:32:14.739Z,100393.38
2022-12-13T21:35:41.479Z,100390.98
2022-12-13T21:39:12.924Z,100388.48
2022-12-13T21:42:39.532Z,100387.79
2022-12-13T21:46:08.696Z,100387.66
2022-12-13T21:49:35.322Z,100388.52
2022-12-13T21:53:02.068Z,100390.05
2022-12-13T21:56:53.912Z,100388.05
2022-12-13T22:00:21.696Z,100390.39
2022-12-13T22:03:49.071Z,100390.10
2022-12-13T22:07:17.541Z,100389.98
2022-12-13T22:10:58.366Z,100386.25
2022-12-13T22:14:25.233Z,100388.34
2022-12-13T22:17:51.996Z,100388.94
2022-12-13T22:21:18.747Z,100384.50
2022-12-13T22:24:52.669Z,100381.91
2022-12-13T22:28:21.635Z,100388.52
2022-12-13T22:31:49.369Z,100387.05
2022-12-13T22:35:16.799Z,100383.27
2022-12-13T22:38:43.862Z,100382.44
2022-12-13T22:42:10.696Z,100379.52
2022-12-13T22:45:37.654Z,100378.10
2022-12-13T22:49:05.189Z,100372.77
2022-12-13T22:52:33.909Z,100369.00
2022-12-13T22:56:08.463Z,100365.25
2022-12-13T22:59:35.153Z,100359.22
2022-12-13T23:03:01.900Z,100363.63
2022-12-13T23:06:30.302Z,100359.48
2022-12-13T23:09:57.890Z,100355.71
2022-12-13T23:13:24.850Z,100353.91
2022-12-13T23:16:51.732Z,100358.55
2022-12-13T23:20:18.984Z,100355.38
2022-12-13T23:23:46.304Z,100355.68
2022-12-13T23:27:13.031Z,100355.17
2022-12-13T23:30:39.984Z,100348.73
2022-12-13T23:34:07.300Z,100342.12
2022-12-13T23:37:35.538Z,100343.39
2022-12-13T23:41:08.169Z,100340.35
2022-12-13T23:44:35.277Z,100348.14
2022-12-13T23:48:01.802Z,100343.88
2022-12-13T23:51:28.657Z,100348.23
2022-12-13T23:54:55.849Z,100340.64
2022-12-13T23:58:24.242Z,100337.54
